Time;durP1;ratioP1;P1;durP2;ratioP2;P2;SDS_P1;SDS_P2;PMS_P1;PMS_P2;Temp;Humidity;BMP_temperature;BMP_pressure;BME280_temperature;BME280_humidity;BME280_pressure;Samples;Min_cycle;Max_cycle;Signal;HPM_P1;HPM_P2
2021/07/04 00:00:39;;;;;;;5.80;3.80;;;;;;;;;;5098114;28;20031;-58
2021/07/04 00:03:05;;;;;;;4.10;3.70;;;;;;;;;;5097562;28;20466;-58
2021/07/04 00:05:36;;;;;;;5.70;3.85;;;;;;;;;;5097754;28;20032;-58
2021/07/04 00:08:02;;;;;;;4.95;4.03;;;;;;;;;;5098334;28;20053;-58
2021/07/04 00:10:30;;;;;;;5.15;3.88;;;;;;;;;;5096209;28;20044;-58
2021/07/04 00:12:56;;;;;;;5.47;4.25;;;;;;;;;;5096335;28;20462;-58
2021/07/04 00:15:24;;;;;;;13.90;12.50;;;;;;;;;;5095917;28;20031;-58
2021/07/04 00:17:52;;;;;;;5.22;4.00;;;;;;;;;;5096914;28;20068;-58
2021/07/04 00:20:19;;;;;;;4.65;4.15;;;;;;;;;;5096868;28;20036;-58
2021/07/04 00:22:45;;;;;;;4.72;3.65;;;;;;;;;;5097791;28;20074;-58
2021/07/04 00:25:12;;;;;;;5.07;4.32;;;;;;;;;;5097435;28;20025;-58
2021/07/04 00:27:38;;;;;;;4.40;3.38;;;;;;;;;;5097260;28;20024;-58
2021/07/04 00:30:06;;;;;;;5.47;3.65;;;;;;;;;;5097874;28;20127;-58
2021/07/04 00:32:32;;;;;;;9.35;3.60;;;;;;;;;;5096081;28;20020;-58
2021/07/04 00:34:58;;;;;;;5.70;4.45;;;;;;;;;;5098014;28;20017;-58
2021/07/04 00:37:24;;;;;;;6.15;4.57;;;;;;;;;;5097155;28;20427;-58
2021/07/04 00:39:50;;;;;;;4.60;4.07;;;;;;;;;;5097200;28;20043;-58
2021/07/04 00:42:16;;;;;;;5.03;4.18;;;;;;;;;;5097327;28;20040;-58
2021/07/04 00:44:42;;;;;;;6.47;5.15;;;;;;;;;;5096923;28;20024;-58
2021/07/04 00:47:08;;;;;;;4.75;3.90;;;;;;;;;;5097071;28;20454;-58
2021/07/04 00:49:34;;;;;;;5.47;4.93;;;;;;;;;;5096923;28;20028;-58
2021/07/04 00:52:01;;;;;;;5.40;4.05;;;;;;;;;;5097036;28;20109;-58
2021/07/04 00:54:27;;;;;;;5.38;4.22;;;;;;;;;;5096850;28;20103;-58
2021/07/04 00:56:53;;;;;;;7.13;4.90;;;;;;;;;;5096834;28;20028;-58
2021/07/04 00:59:20;;;;;;;5.18;4.63;;;;;;;;;;5097360;28;20082;-58
2021/07/04 01:01:46;;;;;;;6.25;4.60;;;;;;;;;;5095204;28;20060;-58
2021/07/04 01:04:12;;;;;;;5.57;4.60;;;;;;;;;;5096622;28;20115;-58
2021/07/04 01:06:39;;;;;;;6.93;4.85;;;;;;;;;;5095436;28;20488;-58
2021/07/04 01:09:05;;;;;;;4.78;4.10;;;;;;;;;;5096250;28;20083;-58
2021/07/04 01:11:31;;;;;;;8.20;5.53;;;;;;;;;;5079248;28;20056;-58
2021/07/04 01:13:57;;;;;;;5.25;4.22;;;;;;;;;;5096476;28;20107;-58
2021/07/04 01:16:24;;;;;;;6.95;4.18;;;;;;;;;;5097006;28;20032;-58
2021/07/04 01:18:50;;;;;;;6.10;5.35;;;;;;;;;;5096194;28;20095;-58
2021/07/04 01:21:16;;;;;;;6.10;4.88;;;;;;;;;;5097204;28;20369;-58
2021/07/04 01:23:42;;;;;;;5.85;5.00;;;;;;;;;;5095124;28;20020;-58
2021/07/04 01:26:08;;;;;;;4.97;4.40;;;;;;;;;;5096272;28;20028;-57
2021/07/04 01:28:35;;;;;;;6.00;4.82;;;;;;;;;;5096527;28;20485;-58
2021/07/04 01:31:01;;;;;;;6.20;4.45;;;;;;;;;;5094967;28;20055;-58
2021/07/04 01:33:27;;;;;;;5.05;3.97;;;;;;;;;;5096045;28;20024;-58
2021/07/04 01:35:54;;;;;;;7.05;4.78;;;;;;;;;;5094816;28;20070;-58
2021/07/04 01:38:20;;;;;;;7.55;5.38;;;;;;;;;;5096614;28;20020;-58
2021/07/04 01:40:46;;;;;;;8.00;4.65;;;;;;;;;;5096197;28;20051;-58
2021/07/04 01:43:12;;;;;;;5.57;4.55;;;;;;;;;;5096065;28;20436;-58
2021/07/04 01:45:39;;;;;;;7.45;4.47;;;;;;;;;;5095940;28;20129;-58
2021/07/04 01:48:06;;;;;;;5.53;4.90;;;;;;;;;;5096146;28;20020;-57
2021/07/04 01:50:34;;;;;;;5.68;4.88;;;;;;;;;;5095823;28;20020;-58
2021/07/04 01:53:00;;;;;;;6.78;5.03;;;;;;;;;;5096107;28;20024;-58
2021/07/04 01:55:26;;;;;;;6.45;5.03;;;;;;;;;;5095811;28;20025;-58
2021/07/04 01:57:52;;;;;;;5.90;4.93;;;;;;;;;;5095693;28;20042;-58
2021/07/04 02:00:23;;;;;;;6.57;5.43;;;;;;;;;;5095659;28;20049;-58
2021/07/04 02:02:51;;;;;;;5.32;4.15;;;;;;;;;;5096020;28;20036;-58
2021/07/04 02:05:17;;;;;;;6.13;5.22;;;;;;;;;;5095539;28;20024;-58
2021/07/04 02:07:43;;;;;;;5.00;4.50;;;;;;;;;;5095790;28;20103;-58
2021/07/04 02:10:13;;;;;;;5.40;4.82;;;;;;;;;;5095660;28;20124;-58
2021/07/04 02:12:39;;;;;;;5.03;4.28;;;;;;;;;;5095715;28;20040;-58
2021/07/04 02:15:08;;;;;;;6.28;4.30;;;;;;;;;;5095402;28;20032;-58
2021/07/04 02:17:34;;;;;;;5.47;4.97;;;;;;;;;;5095629;28;20077;-58
2021/07/04 02:20:13;;;;;;;5.55;4.43;;;;;;;;;;5094684;28;20428;-58
2021/07/04 02:22:39;;;;;;;5.43;4.88;;;;;;;;;;5095213;28;20381;-58
2021/07/04 02:25:05;;;;;;;8.00;5.15;;;;;;;;;;5095238;28;20043;-58
2021/07/04 02:27:31;;;;;;;6.05;5.05;;;;;;;;;;5095055;28;20030;-58
2021/07/04 02:29:57;;;;;;;6.03;4.60;;;;;;;;;;5095093;28;20028;-58
2021/07/04 02:32:23;;;;;;;6.68;5.20;;;;;;;;;;5094346;28;20024;-58
2021/07/04 02:34:49;;;;;;;6.30;5.53;;;;;;;;;;5095738;28;20026;-58
2021/07/04 02:37:14;;;;;;;6.22;4.47;;;;;;;;;;5094939;28;20420;-58
2021/07/04 02:39:40;;;;;;;5.45;4.43;;;;;;;;;;5095117;28;20054;-58
2021/07/04 02:42:06;;;;;;;6.93;5.57;;;;;;;;;;5095291;28;20032;-58
2021/07/04 02:44:32;;;;;;;4.65;4.18;;;;;;;;;;5094863;28;20374;-58
2021/07/04 02:46:58;;;;;;;5.10;4.30;;;;;;;;;;5094717;28;20024;-58
2021/07/04 02:49:24;;;;;;;5.82;5.22;;;;;;;;;;5094924;28;20023;-58
2021/07/04 02:51:50;;;;;;;6.13;4.20;;;;;;;;;;5095259;28;20057;-58
2021/07/04 02:54:16;;;;;;;5.10;4.28;;;;;;;;;;5093375;28;20067;-58
2021/07/04 02:56:42;;;;;;;7.60;5.43;;;;;;;;;;5094619;28;20024;-58
2021/07/04 02:59:08;;;;;;;5.32;4.40;;;;;;;;;;5094566;28;20450;-58
2021/07/04 03:01:35;;;;;;;5.40;4.35;;;;;;;;;;5095002;28;20035;-58
2021/07/04 03:04:01;;;;;;;7.20;5.47;;;;;;;;;;5094401;28;20034;-58
2021/07/04 03:06:29;;;;;;;4.55;3.97;;;;;;;;;;5094410;28;20024;-58
2021/07/04 03:08:55;;;;;;;6.60;5.25;;;;;;;;;;5092804;28;20569;-58
2021/07/04 03:11:21;;;;;;;6.05;4.38;;;;;;;;;;5094385;28;20028;-58
2021/07/04 03:13:47;;;;;;;5.28;4.78;;;;;;;;;;5094324;28;20035;-58
2021/07/04 03:16:13;;;;;;;6.35;4.68;;;;;;;;;;5094807;28;20073;-58
2021/07/04 03:18:39;;;;;;;4.90;4.28;;;;;;;;;;5093504;28;20452;-58
2021/07/04 03:21:05;;;;;;;7.82;5.13;;;;;;;;;;5095012;28;20036;-58
2021/07/04 03:23:31;;;;;;;6.25;4.93;;;;;;;;;;5094097;28;20024;-58
2021/07/04 03:25:57;;;;;;;5.47;4.93;;;;;;;;;;5094096;28;20480;-58
2021/07/04 03:28:23;;;;;;;5.47;4.85;;;;;;;;;;5094399;28;20024;-58
2021/07/04 03:30:52;;;;;;;8.80;5.18;;;;;;;;;;5093118;28;20107;-58
2021/07/04 03:33:18;;;;;;;4.95;4.45;;;;;;;;;;5094450;28;20091;-58
2021/07/04 03:35:44;;;;;;;7.43;4.55;;;;;;;;;;5092803;28;20105;-58
2021/07/04 03:38:10;;;;;;;5.65;5.03;;;;;;;;;;5094054;28;20026;-58
2021/07/04 03:40:36;;;;;;;5.75;4.88;;;;;;;;;;5094007;28;20028;-58
2021/07/04 03:43:02;;;;;;;5.05;4.47;;;;;;;;;;5093525;28;20447;-58
2021/07/04 03:45:29;;;;;;;6.93;5.65;;;;;;;;;;5094728;28;20020;-58
2021/07/04 03:47:58;;;;;;;5.95;4.75;;;;;;;;;;5093930;28;20074;-58
2021/07/04 03:50:24;;;;;;;6.43;4.95;;;;;;;;;;5093946;28;20047;-58
2021/07/04 03:52:54;;;;;;;5.70;4.88;;;;;;;;;;5094463;28;20024;-58
2021/07/04 03:55:20;;;;;;;7.00;4.90;;;;;;;;;;5093637;28;20488;-58
2021/07/04 03:57:46;;;;;;;6.63;5.05;;;;;;;;;;5093874;28;20056;-58
2021/07/04 04:00:13;;;;;;;6.35;5.38;;;;;;;;;;5093832;28;20077;-58
2021/07/04 04:02:39;;;;;;;8.55;5.30;;;;;;;;;;5092660;28;20384;-58
2021/07/04 04:05:06;;;;;;;6.50;5.60;;;;;;;;;;5094595;28;20029;-58
2021/07/04 04:07:32;;;;;;;6.82;5.80;;;;;;;;;;5092485;28;20458;-58
2021/07/04 04:09:58;;;;;;;7.63;5.95;;;;;;;;;;5093916;28;20040;-58
2021/07/04 04:12:24;;;;;;;7.05;5.65;;;;;;;;;;5093785;28;20028;-59
2021/07/04 04:14:50;;;;;;;8.80;6.28;;;;;;;;;;5093364;28;20160;-58
2021/07/04 04:17:16;;;;;;;7.03;5.53;;;;;;;;;;5092662;28;20036;-58
2021/07/04 04:19:48;;;;;;;6.55;5.18;;;;;;;;;;5094436;28;20392;-58
2021/07/04 04:22:14;;;;;;;6.40;5.75;;;;;;;;;;5094194;28;20032;-58
2021/07/04 04:24:40;;;;;;;10.68;6.60;;;;;;;;;;5093639;28;20024;-58
2021/07/04 04:27:06;;;;;;;6.63;4.93;;;;;;;;;;5093320;28;20505;-58
2021/07/04 04:29:32;;;;;;;6.25;5.40;;;;;;;;;;5093885;28;20020;-58
2021/07/04 04:31:59;;;;;;;6.43;5.50;;;;;;;;;;5092245;28;20085;-58
2021/07/04 04:34:25;;;;;;;9.27;5.90;;;;;;;;;;5092163;28;20054;-58
2021/07/04 04:36:50;;;;;;;5.97;5.38;;;;;;;;;;5093057;28;20024;-58
2021/07/04 04:39:20;;;;;;;7.55;5.85;;;;;;;;;;5093413;28;20032;-58
2021/07/04 04:41:46;;;;;;;8.30;6.07;;;;;;;;;;5092738;28;20038;-58
2021/07/04 04:44:12;;;;;;;9.07;5.38;;;;;;;;;;5097988;28;20434;-58
2021/07/04 04:46:38;;;;;;;6.05;4.88;;;;;;;;;;5097736;28;20031;-58
2021/07/04 04:49:04;;;;;;;6.72;5.93;;;;;;;;;;5096775;28;20028;-58
2021/07/04 04:51:30;;;;;;;8.23;5.53;;;;;;;;;;5097075;28;20032;-58
2021/07/04 04:53:56;;;;;;;6.80;6.10;;;;;;;;;;5096939;28;20028;-58
2021/07/04 04:56:22;;;;;;;6.75;5.57;;;;;;;;;;5097285;28;20067;-58
2021/07/04 04:58:51;;;;;;;6.72;5.40;;;;;;;;;;5097515;28;20063;-58
2021/07/04 05:01:17;;;;;;;6.55;5.85;;;;;;;;;;5097382;28;20024;-58
2021/07/04 05:03:44;;;;;;;7.15;4.88;;;;;;;;;;5097062;28;20016;-58
2021/07/04 05:06:13;;;;;;;7.22;5.53;;;;;;;;;;5097618;28;20052;-58
2021/07/04 05:08:39;;;;;;;7.32;5.40;;;;;;;;;;5096225;28;20024;-59
2021/07/04 05:11:08;;;;;;;8.68;4.65;;;;;;;;;;5096780;28;20032;-58
2021/07/04 05:13:34;;;;;;;6.40;5.38;;;;;;;;;;5096653;28;20078;-58
2021/07/04 05:16:00;;;;;;;10.75;6.15;;;;;;;;;;5096276;28;20078;-58
2021/07/04 05:18:26;;;;;;;6.95;5.20;;;;;;;;;;5096573;28;20486;-58
2021/07/04 05:20:52;;;;;;;6.68;5.82;;;;;;;;;;5096452;28;20020;-58
2021/07/04 05:23:18;;;;;;;9.75;5.00;;;;;;;;;;5095708;28;20069;-58
2021/07/04 05:25:44;;;;;;;6.00;5.45;;;;;;;;;;5096112;28;20454;-59
2021/07/04 05:28:10;;;;;;;5.95;5.18;;;;;;;;;;5096625;28;20036;-58
2021/07/04 05:30:36;;;;;;;5.70;5.05;;;;;;;;;;5096337;28;20047;-58
2021/07/04 05:33:01;;;;;;;4.72;4.18;;;;;;;;;;5096793;28;20020;-58
2021/07/04 05:35:28;;;;;;;5.97;5.38;;;;;;;;;;5094907;28;20024;-58
2021/07/04 05:37:54;;;;;;;5.95;4.70;;;;;;;;;;5096133;28;20369;-58
2021/07/04 05:40:20;;;;;;;5.75;4.80;;;;;;;;;;5096140;28;20036;-58
2021/07/04 05:42:46;;;;;;;5.07;4.65;;;;;;;;;;5096634;28;20036;-58
2021/07/04 05:45:15;;;;;;;5.45;4.90;;;;;;;;;;5096804;28;20049;-58
2021/07/04 05:47:41;;;;;;;7.57;4.93;;;;;;;;;;5095930;28;20028;-58
2021/07/04 05:50:07;;;;;;;6.55;5.45;;;;;;;;;;5095648;28;20461;-58
2021/07/04 05:52:33;;;;;;;6.72;4.72;;;;;;;;;;5094358;28;20116;-58
2021/07/04 05:54:59;;;;;;;5.68;5.07;;;;;;;;;;5095364;28;20098;-58
2021/07/04 05:57:25;;;;;;;5.55;4.30;;;;;;;;;;5096327;28;20103;-58
2021/07/04 05:59:51;;;;;;;6.45;4.65;;;;;;;;;;5095033;28;20071;-58
2021/07/04 06:02:17;;;;;;;5.85;4.70;;;;;;;;;;5095955;28;20028;-58
2021/07/04 06:04:43;;;;;;;5.97;5.03;;;;;;;;;;5095621;28;20028;-58
2021/07/04 06:07:11;;;;;;;8.20;5.22;;;;;;;;;;5095344;28;20562;-58
2021/07/04 06:09:37;;;;;;;5.53;4.75;;;;;;;;;;5095532;28;20051;-58
2021/07/04 06:12:06;;;;;;;4.95;4.32;;;;;;;;;;5094210;28;20028;-58
2021/07/04 06:14:35;;;;;;;5.38;4.45;;;;;;;;;;5095115;28;20024;-58
2021/07/04 06:17:01;;;;;;;5.27;4.03;;;;;;;;;;5095379;28;20024;-58
2021/07/04 06:19:27;;;;;;;5.40;4.18;;;;;;;;;;5094001;28;20766;-58
2021/07/04 06:21:53;;;;;;;6.13;4.38;;;;;;;;;;5095797;28;20039;-58
2021/07/04 06:24:19;;;;;;;4.75;4.00;;;;;;;;;;5095161;28;20021;-58
2021/07/04 06:26:45;;;;;;;5.55;4.38;;;;;;;;;;5094017;28;20032;-58
2021/07/04 06:29:12;;;;;;;5.03;4.30;;;;;;;;;;5095069;28;20040;-58
2021/07/04 06:31:38;;;;;;;5.70;4.45;;;;;;;;;;5095362;28;20016;-58
2021/07/04 06:34:04;;;;;;;6.97;4.55;;;;;;;;;;5095232;28;20023;-58
2021/07/04 06:36:30;;;;;;;5.75;4.32;;;;;;;;;;5095772;28;20354;-58
2021/07/04 06:38:57;;;;;;;4.97;4.05;;;;;;;;;;5095013;28;20066;-58
2021/07/04 06:41:23;;;;;;;5.05;4.47;;;;;;;;;;5093835;28;20028;-58
2021/07/04 06:43:49;;;;;;;6.85;5.25;;;;;;;;;;5095018;28;20031;-58
2021/07/04 06:46:15;;;;;;;5.57;4.22;;;;;;;;;;5094785;28;20031;-58
2021/07/04 06:48:42;;;;;;;4.40;3.63;;;;;;;;;;5094762;28;20462;-58
2021/07/04 06:51:08;;;;;;;5.28;4.20;;;;;;;;;;5095014;28;20481;-58
2021/07/04 06:53:34;;;;;;;4.70;3.80;;;;;;;;;;5095523;28;20385;-58
2021/07/04 06:56:01;;;;;;;4.35;3.78;;;;;;;;;;5093396;28;20028;-58
2021/07/04 06:58:27;;;;;;;4.80;3.88;;;;;;;;;;5095152;28;20020;-58
2021/07/04 07:00:53;;;;;;;8.15;4.45;;;;;;;;;;5093204;28;20028;-58
2021/07/04 07:03:19;;;;;;;5.13;4.47;;;;;;;;;;5094496;28;20024;-58
2021/07/04 07:05:45;;;;;;;5.38;4.47;;;;;;;;;;5094288;28;20020;-58
2021/07/04 07:08:11;;;;;;;3.90;3.35;;;;;;;;;;5094744;28;20024;-58
2021/07/04 07:10:37;;;;;;;8.98;4.82;;;;;;;;;;5095527;28;20048;-59
2021/07/04 07:13:04;;;;;;;5.35;4.63;;;;;;;;;;5094385;28;20032;-58
2021/07/04 07:15:30;;;;;;;4.72;3.90;;;;;;;;;;5092691;28;20064;-59
2021/07/04 07:17:56;;;;;;;5.28;4.30;;;;;;;;;;5094787;28;20027;-58
2021/07/04 07:20:22;;;;;;;6.20;4.10;;;;;;;;;;5094281;28;20020;-59
2021/07/04 07:22:48;;;;;;;6.13;4.25;;;;;;;;;;5094768;28;20339;-59
2021/07/04 07:25:14;;;;;;;5.57;4.53;;;;;;;;;;5094726;28;20527;-58
2021/07/04 07:27:40;;;;;;;5.38;3.75;;;;;;;;;;5093847;28;20024;-58
2021/07/04 07:30:08;;;;;;;4.45;3.67;;;;;;;;;;5094047;28;20036;-58
2021/07/04 07:32:34;;;;;;;5.45;4.20;;;;;;;;;;5094121;28;20373;-58
2021/07/04 07:35:00;;;;;;;4.50;4.10;;;;;;;;;;5094489;28;20366;-59
2021/07/04 07:37:27;;;;;;;5.22;3.90;;;;;;;;;;5076939;28;20354;-59
2021/07/04 07:39:53;;;;;;;4.72;4.18;;;;;;;;;;5094354;28;20355;-58
2021/07/04 07:42:19;;;;;;;6.05;4.25;;;;;;;;;;5093626;28;20042;-58
2021/07/04 07:44:45;;;;;;;5.47;3.92;;;;;;;;;;5092703;28;20020;-59
2021/07/04 07:47:12;;;;;;;5.13;4.10;;;;;;;;;;5076305;28;20036;-58
2021/07/04 07:49:38;;;;;;;7.78;4.90;;;;;;;;;;5093963;28;20373;-59
2021/07/04 07:52:04;;;;;;;7.07;4.13;;;;;;;;;;5093656;28;20024;-58
2021/07/04 07:54:31;;;;;;;5.05;3.60;;;;;;;;;;5093854;28;20028;-58
2021/07/04 07:57:02;;;;;;;4.45;4.03;;;;;;;;;;5093907;28;20020;-58
2021/07/04 07:59:31;;;;;;;4.90;4.05;;;;;;;;;;5093201;28;20429;-58
2021/07/04 08:01:58;;;;;;;6.18;4.20;;;;;;;;;;5094083;28;20028;-58
2021/07/04 08:04:24;;;;;;;4.85;4.05;;;;;;;;;;5093603;28;20020;-59
2021/07/04 08:06:50;;;;;;;6.22;4.82;;;;;;;;;;5093787;28;20475;-58
2021/07/04 08:09:19;;;;;;;5.32;4.82;;;;;;;;;;5093888;28;20056;-59
2021/07/04 08:11:45;;;;;;;5.10;4.60;;;;;;;;;;5094026;28;20095;-59
2021/07/04 08:14:11;;;;;;;6.65;4.13;;;;;;;;;;5093677;28;20042;-59
2021/07/04 08:16:38;;;;;;;4.90;4.13;;;;;;;;;;5093334;28;20520;-58
2021/07/04 08:19:06;;;;;;;4.65;3.97;;;;;;;;;;5098271;28;20039;-58
2021/07/04 08:21:35;;;;;;;5.20;3.63;;;;;;;;;;5096700;28;20132;-59
2021/07/04 08:24:01;;;;;;;5.57;4.18;;;;;;;;;;5096278;28;20111;-59
2021/07/04 08:26:30;;;;;;;4.45;3.92;;;;;;;;;;5097494;28;20066;-59
2021/07/04 08:28:56;;;;;;;4.20;3.70;;;;;;;;;;5097420;28;20535;-58
2021/07/04 08:31:27;;;;;;;6.25;4.35;;;;;;;;;;5097672;28;20035;-59
2021/07/04 08:33:53;;;;;;;4.25;3.47;;;;;;;;;;5097382;28;20028;-59
2021/07/04 08:36:20;;;;;;;4.65;4.05;;;;;;;;;;5097042;28;20024;-59
2021/07/04 08:38:46;;;;;;;4.70;4.07;;;;;;;;;;5096320;28;20024;-59
2021/07/04 08:41:13;;;;;;;4.72;3.38;;;;;;;;;;5096383;28;20021;-59
2021/07/04 08:43:42;;;;;;;6.47;3.65;;;;;;;;;;5097063;28;20030;-59
2021/07/04 08:46:09;;;;;;;4.13;3.38;;;;;;;;;;5096780;28;20627;-59
2021/07/04 08:48:36;;;;;;;6.35;3.67;;;;;;;;;;5096997;28;20031;-59
2021/07/04 08:51:03;;;;;;;4.63;3.10;;;;;;;;;;5097125;28;20062;-58
2021/07/04 08:53:29;;;;;;;4.97;3.65;;;;;;;;;;5096780;28;20179;-58
2021/07/04 08:55:55;;;;;;;4.20;3.15;;;;;;;;;;5097050;28;20031;-58
2021/07/04 08:58:23;;;;;;;4.95;3.67;;;;;;;;;;5095372;28;20050;-58
2021/07/04 09:01:07;;;;;;;4.65;3.50;;;;;;;;;;5096923;28;20502;-58
2021/07/04 09:03:33;;;;;;;4.30;3.38;;;;;;;;;;5097108;28;20028;-58
2021/07/04 09:05:59;;;;;;;3.45;2.55;;;;;;;;;;5096870;28;20457;-58
2021/07/04 09:08:25;;;;;;;2.83;2.33;;;;;;;;;;5097266;28;20020;-58
2021/07/04 09:11:10;;;;;;;3.63;3.10;;;;;;;;;;5094964;28;20044;-58
2021/07/04 09:13:36;;;;;;;4.43;3.00;;;;;;;;;;5097198;28;20054;-58
2021/07/04 09:16:03;;;;;;;3.28;2.55;;;;;;;;;;5096692;28;20077;-58
2021/07/04 09:18:29;;;;;;;4.35;3.10;;;;;;;;;;5096537;28;20031;-58
2021/07/04 09:20:55;;;;;;;3.47;2.50;;;;;;;;;;5096721;28;20032;-58
2021/07/04 09:23:37;;;;;;;3.85;3.13;;;;;;;;;;5095708;28;20357;-58
2021/07/04 09:26:03;;;;;;;4.38;2.97;;;;;;;;;;5096674;28;20020;-58
2021/07/04 09:28:30;;;;;;;3.08;2.67;;;;;;;;;;5096834;28;20024;-59
2021/07/04 09:30:59;;;;;;;4.05;2.97;;;;;;;;;;5096254;28;20093;-58
2021/07/04 09:33:35;;;;;;;3.80;2.90;;;;;;;;;;5096503;28;20023;-58
2021/07/04 09:36:01;;;;;;;4.50;3.03;;;;;;;;;;5095074;28;20035;-59
2021/07/04 09:38:35;;;;;;;8.10;2.83;;;;;;;;;;5096160;28;20103;-59
2021/07/04 09:41:02;;;;;;;3.60;2.40;;;;;;;;;;5094855;28;20024;-59
2021/07/04 09:43:29;;;;;;;3.50;3.10;;;;;;;;;;5094823;28;20024;-59
2021/07/04 09:45:56;;;;;;;4.65;3.22;;;;;;;;;;5096351;28;20110;-59
2021/07/04 09:48:24;;;;;;;5.30;3.15;;;;;;;;;;5096035;28;20031;-59
2021/07/04 09:50:53;;;;;;;4.15;3.13;;;;;;;;;;5095608;28;20016;-59
2021/07/04 09:53:21;;;;;;;3.33;3.03;;;;;;;;;;5095912;28;20381;-59
2021/07/04 09:55:53;;;;;;;3.20;2.63;;;;;;;;;;5096140;28;20055;-59
2021/07/04 09:58:20;;;;;;;3.08;2.63;;;;;;;;;;5096369;28;20111;-59
2021/07/04 10:00:47;;;;;;;2.97;2.35;;;;;;;;;;5095726;28;20024;-59
2021/07/04 10:03:13;;;;;;;3.38;2.35;;;;;;;;;;5095989;28;20032;-59
2021/07/04 10:05:41;;;;;;;3.33;2.63;;;;;;;;;;5096226;28;20026;-60
2021/07/04 10:08:17;;;;;;;4.00;2.50;;;;;;;;;;5095597;28;20465;-59
2021/07/04 10:10:43;;;;;;;3.45;2.38;;;;;;;;;;5094382;28;20043;-60
2021/07/04 10:13:09;;;;;;;2.80;2.10;;;;;;;;;;5094292;28;20028;-59
2021/07/04 10:15:35;;;;;;;4.82;2.50;;;;;;;;;;5095213;28;20078;-59
2021/07/04 10:18:02;;;;;;;3.42;2.47;;;;;;;;;;5096204;28;20024;-59
2021/07/04 10:20:29;;;;;;;4.00;2.47;;;;;;;;;;5095610;28;20054;-59
2021/07/04 10:22:55;;;;;;;3.88;2.55;;;;;;;;;;5095592;28;20028;-59
2021/07/04 10:25:21;;;;;;;3.85;2.80;;;;;;;;;;5094078;28;20020;-59
2021/07/04 10:27:49;;;;;;;3.50;2.65;;;;;;;;;;5094966;28;20028;-59
2021/07/04 10:30:15;;;;;;;3.25;2.65;;;;;;;;;;5095722;28;20024;-59
2021/07/04 10:32:59;;;;;;;3.30;2.47;;;;;;;;;;5095720;28;20055;-60
2021/07/04 10:35:25;;;;;;;4.68;2.50;;;;;;;;;;5095635;28;20028;-59
2021/07/04 10:37:51;;;;;;;4.60;3.03;;;;;;;;;;5094717;28;20020;-59
2021/07/04 10:40:19;;;;;;;2.75;2.28;;;;;;;;;;5093275;28;20028;-59
2021/07/04 10:42:45;;;;;;;5.80;2.72;;;;;;;;;;5095757;28;20342;-59
2021/07/04 10:45:31;;;;;;;3.15;2.50;;;;;;;;;;5094853;28;20056;-59
2021/07/04 10:47:59;;;;;;;2.92;2.17;;;;;;;;;;5094810;28;20021;-59
2021/07/04 10:50:25;;;;;;;6.07;3.10;;;;;;;;;;5095131;28;20047;-59
2021/07/04 10:52:53;;;;;;;3.22;2.60;;;;;;;;;;5094578;28;20046;-59
2021/07/04 10:55:29;;;;;;;4.63;2.60;;;;;;;;;;5094742;28;20373;-59
2021/07/04 10:58:04;;;;;;;3.35;2.63;;;;;;;;;;5093962;28;20065;-59
2021/07/04 11:00:33;;;;;;;4.43;3.20;;;;;;;;;;5095246;28;20022;-59
2021/07/04 11:03:00;;;;;;;3.00;2.25;;;;;;;;;;5094756;28;20085;-59
2021/07/04 11:05:34;;;;;;;3.47;2.50;;;;;;;;;;5094467;28;20024;-59
2021/07/04 11:08:00;;;;;;;4.40;3.22;;;;;;;;;;5094664;28;20020;-59
2021/07/04 11:10:27;;;;;;;3.42;2.38;;;;;;;;;;5094339;28;20097;-59
2021/07/04 11:12:55;;;;;;;3.63;2.70;;;;;;;;;;5094407;28;20430;-59
2021/07/04 11:15:20;;;;;;;3.70;2.90;;;;;;;;;;5094009;28;20020;-59
2021/07/04 11:18:04;;;;;;;4.10;1.98;;;;;;;;;;5094362;28;20024;-59
2021/07/04 11:20:31;;;;;;;3.40;2.35;;;;;;;;;;5095139;28;20458;-59
2021/07/04 11:23:27;;;;;;;2.80;1.77;;;;;;;;;;5094832;28;20036;-59
2021/07/04 11:25:56;;;;;;;4.65;2.08;;;;;;;;;;5094267;28;20016;-59
2021/07/04 11:28:33;;;;;;;4.00;2.40;;;;;;;;;;5094758;28;20066;-60
2021/07/04 11:30:59;;;;;;;3.00;1.95;;;;;;;;;;5094221;28;20053;-59
2021/07/04 11:33:32;;;;;;;3.22;2.30;;;;;;;;;;5094105;28;20519;-59
2021/07/04 11:36:09;;;;;;;5.32;2.17;;;;;;;;;;5094244;28;20118;-59
2021/07/04 11:38:39;;;;;;;2.42;1.95;;;;;;;;;;5092918;28;20338;-59
2021/07/04 11:41:06;;;;;;;3.35;2.58;;;;;;;;;;5094051;28;20028;-59
2021/07/04 11:43:33;;;;;;;3.30;2.40;;;;;;;;;;5094568;28;20024;-59
2021/07/04 11:46:03;;;;;;;3.03;2.35;;;;;;;;;;5093932;28;20076;-59
2021/07/04 11:48:49;;;;;;;3.03;2.45;;;;;;;;;;5094460;28;20112;-59
2021/07/04 11:51:35;;;;;;;2.85;2.30;;;;;;;;;;5062101;28;20433;-59
2021/07/04 11:54:05;;;;;;;2.97;2.13;;;;;;;;;;5093751;28;20051;-60
2021/07/04 11:56:31;;;;;;;;;;;;;;;;;;5094634;28;20060;-59
2021/07/04 11:59:16;;;;;;;3.33;2.47;;;;;;;;;;5094399;28;19904;-59
2021/07/04 12:01:46;;;;;;;3.88;2.22;;;;;;;;;;5094601;28;20032;-59
2021/07/04 12:04:12;;;;;;;;;;;;;;;;;;5094166;28;20454;-59
2021/07/04 12:06:59;;;;;;;3.47;2.50;;;;;;;;;;5094325;28;19904;-59
2021/07/04 12:09:40;;;;;;;5.00;2.65;;;;;;;;;;5092279;28;20048;-59
2021/07/04 12:12:26;;;;;;;3.10;2.35;;;;;;;;;;5093666;28;20032;-59
2021/07/04 12:14:53;;;;;;;3.22;2.42;;;;;;;;;;5094453;28;20036;-59
2021/07/04 12:17:21;;;;;;;3.63;2.70;;;;;;;;;;5093728;28;20016;-60
2021/07/04 12:19:54;;;;;;;3.13;2.42;;;;;;;;;;5094198;28;20121;-59
2021/07/04 12:22:22;;;;;;;4.15;3.30;;;;;;;;;;5094089;28;20043;-59
2021/07/04 12:24:48;;;;;;;4.45;3.20;;;;;;;;;;5093644;28;20021;-59
2021/07/04 12:27:15;;;;;;;3.05;2.28;;;;;;;;;;5093774;28;20101;-59
2021/07/04 12:30:00;;;;;;;3.15;1.85;;;;;;;;;;5093820;28;20051;-59
2021/07/04 12:32:26;;;;;;;3.70;2.92;;;;;;;;;;5094166;28;20032;-59
2021/07/04 12:34:52;;;;;;;3.22;2.88;;;;;;;;;;5093444;28;20021;-59
2021/07/04 12:37:19;;;;;;;3.53;2.80;;;;;;;;;;5093196;28;20016;-59
2021/07/04 12:39:46;;;;;;;3.60;2.83;;;;;;;;;;5093550;28;20024;-59
2021/07/04 12:42:26;;;;;;;4.47;2.50;;;;;;;;;;5093392;28;20543;-58
2021/07/04 12:45:01;;;;;;;3.90;2.85;;;;;;;;;;5093871;28;20024;-58
2021/07/04 12:47:27;;;;;;;5.63;2.58;;;;;;;;;;5093402;28;20035;-58
2021/07/04 12:50:22;;;;;;;3.63;2.67;;;;;;;;;;5093317;28;20024;-58
2021/07/04 12:52:58;;;;;;;3.40;2.83;;;;;;;;;;5083970;28;20032;-58
2021/07/04 12:55:42;;;;;;;3.42;2.45;;;;;;;;;;5093403;28;20087;-58
2021/07/04 12:58:21;;;;;;;4.10;2.58;;;;;;;;;;5093208;28;20016;-58
2021/07/04 13:00:47;;;;;;;3.47;2.50;;;;;;;;;;5092069;28;20020;-58
2021/07/04 13:03:33;;;;;;;2.88;2.30;;;;;;;;;;5093957;28;20136;-58
2021/07/04 13:05:59;;;;;;;3.70;2.75;;;;;;;;;;5096826;28;20020;-58
2021/07/04 13:08:25;;;;;;;3.03;2.60;;;;;;;;;;5095388;28;20123;-58
2021/07/04 13:10:52;;;;;;;3.42;2.50;;;;;;;;;;5096980;28;20434;-58
2021/07/04 13:13:18;;;;;;;4.65;3.67;;;;;;;;;;5096556;28;20035;-59
2021/07/04 13:15:44;;;;;;;3.38;2.50;;;;;;;;;;5096868;28;20012;-58
2021/07/04 13:18:24;;;;;;;3.47;2.78;;;;;;;;;;5097122;28;20378;-59
2021/07/04 13:20:50;;;;;;;2.67;2.05;;;;;;;;;;5096603;28;20032;-58
2021/07/04 13:23:17;;;;;;;3.33;2.35;;;;;;;;;;5096046;28;20089;-59
2021/07/04 13:25:45;;;;;;;3.45;2.42;;;;;;;;;;5097038;28;20024;-59
2021/07/04 13:28:12;;;;;;;2.97;1.80;;;;;;;;;;5096663;28;20028;-58
2021/07/04 13:30:51;;;;;;;3.28;2.35;;;;;;;;;;5096247;28;20021;-58
2021/07/04 13:33:26;;;;;;;2.58;1.90;;;;;;;;;;5094811;28;20044;-58
2021/07/04 13:35:53;;;;;;;3.33;2.33;;;;;;;;;;5096294;28;20039;-58
2021/07/04 13:38:19;;;;;;;4.15;1.98;;;;;;;;;;5096466;28;20036;-58
2021/07/04 13:40:50;;;;;;;3.33;1.67;;;;;;;;;;5096735;28;20066;-58
2021/07/04 13:43:16;;;;;;;2.03;1.40;;;;;;;;;;5096554;28;20127;-58
2021/07/04 13:45:50;;;;;;;2.42;1.65;;;;;;;;;;5096627;28;20107;-59
2021/07/04 13:48:19;;;;;;;2.75;1.40;;;;;;;;;;5096332;28;20077;-59
2021/07/04 13:50:46;;;;;;;2.70;1.80;;;;;;;;;;5096259;28;20024;-58
2021/07/04 13:53:15;;;;;;;2.13;1.55;;;;;;;;;;5096455;28;20063;-59
2021/07/04 13:55:42;;;;;;;4.07;1.77;;;;;;;;;;5096336;28;20020;-58
2021/07/04 13:58:08;;;;;;;2.35;1.77;;;;;;;;;;5094601;28;20074;-58
2021/07/04 14:00:35;;;;;;;3.65;2.58;;;;;;;;;;5095867;28;20051;-59
2021/07/04 14:03:02;;;;;;;3.60;3.05;;;;;;;;;;5094820;28;20035;-58
2021/07/04 14:05:28;;;;;;;3.58;3.25;;;;;;;;;;5095708;28;20063;-58
2021/07/04 14:07:54;;;;;;;3.55;3.05;;;;;;;;;;5095319;28;20474;-58
2021/07/04 14:10:20;;;;;;;5.25;4.18;;;;;;;;;;5095460;28;20044;-58
2021/07/04 14:12:46;;;;;;;5.28;4.78;;;;;;;;;;5094257;28;20115;-58
2021/07/04 14:15:13;;;;;;;6.20;3.42;;;;;;;;;;5094624;28;20232;-58
2021/07/04 14:17:39;;;;;;;3.63;2.65;;;;;;;;;;5095487;28;20149;-59
2021/07/04 14:20:06;;;;;;;4.22;3.00;;;;;;;;;;5095939;28;20085;-58
2021/07/04 14:22:33;;;;;;;2.90;2.33;;;;;;;;;;5095917;28;20032;-58
2021/07/04 14:24:59;;;;;;;3.42;2.15;;;;;;;;;;5094453;28;20039;-58
2021/07/04 14:27:25;;;;;;;2.22;1.63;;;;;;;;;;5095308;28;20023;-58
2021/07/04 14:29:52;;;;;;;2.20;1.35;;;;;;;;;;5095227;28;20016;-58
2021/07/04 14:32:17;;;;;;;2.83;1.58;;;;;;;;;;5095455;28;20024;-58
2021/07/04 14:34:44;;;;;;;2.15;1.23;;;;;;;;;;5095698;28;20028;-58
2021/07/04 14:37:10;;;;;;;2.60;1.90;;;;;;;;;;5095120;28;20024;-58
2021/07/04 14:39:36;;;;;;;2.28;1.35;;;;;;;;;;5094682;28;20496;-58
2021/07/04 14:42:02;;;;;;;2.97;1.63;;;;;;;;;;5095336;28;20050;-58
2021/07/04 14:44:28;;;;;;;2.30;1.63;;;;;;;;;;5093634;28;20110;-58
2021/07/04 14:46:54;;;;;;;3.38;1.42;;;;;;;;;;5095681;28;20095;-58